Time;durP1;ratioP1;P1;durP2;ratioP2;P2;SDS_P1;SDS_P2;PMS_P1;PMS_P2;Temp;Humidity;BMP_temperature;BMP_pressure;BME280_temperature;BME280_humidity;BME280_pressure;Samples;Min_cycle;Max_cycle;Signal;HPM_P1;HPM_P2
2024/04/21 00:01:58;;;;;;;;;7.00;5.00;;;;;3.44;86.34;100541.69;112487;234;41626;-58
2024/04/21 00:04:42;;;;;;;;;7.00;5.00;;;;;3.44;86.37;100539.86;112453;233;42207;-55
2024/04/21 00:07:19;;;;;;;;;7.00;5.00;;;;;3.44;86.53;100540.29;112334;236;169351;-55
2024/04/21 00:10:01;;;;;;;;;4.00;3.00;;;;;3.42;86.28;100543.13;112497;236;39978;-56
2024/04/21 00:12:45;;;;;;;;;6.00;5.00;;;;;3.38;86.11;100536.52;112316;233;169421;-58
2024/04/21 00:15:20;;;;;;;;;6.00;5.00;;;;;3.38;86.10;100535.14;112560;232;39890;-56
2024/04/21 00:17:57;;;;;;;;;;;;;;;3.38;86.01;100537.98;112464;232;169271;-56
2024/04/21 00:20:36;;;;;;;;;7.00;6.00;;;;;3.32;85.88;100544.19;112679;233;39850;-56
2024/04/21 00:23:20;;;;;;;;;3.00;3.00;;;;;3.30;85.69;100546.91;112572;233;41881;-57
2024/04/21 00:26:05;;;;;;;;;7.00;5.00;;;;;3.26;85.53;100546.35;112550;236;40730;-56
2024/04/21 00:28:41;;;;;;;;;7.00;6.00;;;;;3.30;85.30;100542.83;112595;232;40353;-60
2024/04/21 00:31:24;;;;;;;;;6.67;5.00;;;;;3.29;85.20;100544.88;112411;234;169131;-58
2024/04/21 00:34:06;;;;;;;;;8.00;6.00;;;;;3.28;85.04;100543.51;112449;233;40607;-59
2024/04/21 00:36:41;;;;;;;;;6.00;4.00;;;;;3.24;84.70;100546.34;112340;233;169171;-58
2024/04/21 00:39:20;;;;;;;;;7.00;4.00;;;;;3.28;84.74;100550.61;112571;232;40485;-59
2024/04/21 00:41:54;;;;;;;;;6.00;4.00;;;;;3.28;84.73;100557.37;112515;235;169694;-58
2024/04/21 00:44:31;;;;;;;;;6.00;5.00;;;;;3.24;84.59;100557.02;112698;233;40544;-59
2024/04/21 00:47:09;;;;;;;;;5.00;4.50;;;;;3.25;84.41;100556.29;112479;236;40704;-58
2024/04/21 00:49:45;;;;;;;;;6.25;5.00;;;;;3.26;84.39;100557.78;112323;236;169394;-58
2024/04/21 00:52:22;;;;;;;;;9.00;6.33;;;;;3.23;84.37;100555.86;112509;236;40350;-60
2024/04/21 00:54:56;;;;;;;;;6.00;5.00;;;;;3.22;84.20;100558.88;112337;234;169128;-56
2024/04/21 00:57:34;;;;;;;;;6.50;5.50;;;;;3.22;84.04;100556.20;112582;234;40333;-56
2024/04/21 01:00:12;;;;;;;;;2.00;2.00;;;;;3.22;84.05;100553.73;112510;236;169568;-59
2024/04/21 01:02:51;;;;;;;;;3.50;3.00;;;;;3.16;84.03;100548.33;112704;233;40432;-60
2024/04/21 01:05:29;;;;;;;;;5.00;4.50;;;;;3.12;84.13;100545.34;112739;233;40569;-59
2024/04/21 01:08:06;;;;;;;;;6.67;5.00;;;;;3.14;83.98;100547.16;112525;234;42564;-57
2024/04/21 01:10:42;;;;;;;;;4.67;4.00;;;;;3.15;83.90;100549.20;112633;232;40719;-64
2024/04/21 01:13:16;;;;;;;;;6.00;4.50;;;;;3.11;83.85;100553.40;112384;234;169018;-58
2024/04/21 01:16:01;;;;;;;;;6.00;5.00;;;;;3.09;83.73;100549.58;112570;232;40305;-59
2024/04/21 01:18:40;;;;;;;;;6.00;5.00;;;;;3.09;83.62;100545.11;112534;236;169193;-55
2024/04/21 01:21:19;;;;;;;;;5.00;4.00;;;;;3.05;83.57;100550.05;112570;233;39892;-55
2024/04/21 01:23:57;;;;;;;;;4.25;4.00;;;;;3.05;83.57;100548.70;112386;233;169776;-54
2024/04/21 01:26:34;;;;;;;;;5.00;4.00;;;;;3.06;83.33;100553.00;112513;232;40634;-54
2024/04/21 01:29:13;;;;;;;;;5.00;3.00;;;;;3.06;83.20;100550.35;112572;232;40766;-55
2024/04/21 01:31:49;;;;;;;;;4.00;3.00;;;;;3.05;83.21;100551.38;112420;235;170138;-55
2024/04/21 01:34:31;;;;;;;;;4.00;3.00;;;;;3.06;83.02;100550.86;112503;233;40892;-58
2024/04/21 01:37:09;;;;;;;;;3.00;3.00;;;;;3.07;82.96;100551.52;112318;236;169751;-58
2024/04/21 01:39:45;;;;;;;;;5.00;4.00;;;;;3.04;83.02;100553.23;112612;232;40597;-56
2024/04/21 01:42:22;;;;;;;;;7.00;6.00;;;;;3.01;83.12;100560.55;112459;232;169467;-53
2024/04/21 01:44:58;;;;;;;;;5.00;4.00;;;;;2.98;83.07;100560.63;112672;236;40156;-59
2024/04/21 01:47:36;;;;;;;;;4.00;3.50;;;;;2.96;83.19;100568.23;112551;233;40597;-60
2024/04/21 01:50:12;;;;;;;;;4.67;2.67;;;;;2.93;83.00;100566.80;112571;236;39954;-55
2024/04/21 01:52:53;;;;;;;;;6.00;4.00;;;;;2.93;83.04;100568.06;112612;233;40617;-57
2024/04/21 01:55:34;;;;;;;;;6.00;4.00;;;;;2.93;83.05;100570.02;112464;236;169186;-56
2024/04/21 01:58:08;;;;;;;;;5.00;4.00;;;;;2.92;82.80;100569.73;112559;236;41611;-57
2024/04/21 02:00:46;;;;;;;;;4.67;3.33;;;;;2.83;82.92;100568.09;112333;233;169963;-55
2024/04/21 02:03:20;;;;;;;;;3.67;3.00;;;;;2.82;82.90;100571.85;112556;236;41034;-58
2024/04/21 02:05:58;;;;;;;;;7.00;5.00;;;;;2.84;82.84;100570.11;112433;236;169445;-58
2024/04/21 02:08:32;;;;;;;;;7.00;6.00;;;;;2.81;82.65;100567.54;112582;233;41421;-58
2024/04/21 02:11:09;;;;;;;;;6.00;4.00;;;;;2.81;82.57;100566.27;112482;236;40364;-58
2024/04/21 02:13:54;;;;;;;;;4.00;3.00;;;;;2.78;82.49;100567.56;112314;233;169377;-55
2024/04/21 02:16:37;;;;;;;;;7.50;5.75;;;;;2.78;82.49;100567.98;112590;232;41595;-54
2024/04/21 02:19:24;;;;;;;;;5.00;4.00;;;;;2.76;82.34;100567.61;112406;235;169105;-57
2024/04/21 02:22:00;;;;;;;;;4.00;3.00;;;;;2.75;82.36;100567.33;112500;236;40626;-58
2024/04/21 02:24:45;;;;;;;;;4.00;3.00;;;;;2.77;82.29;100568.80;112215;233;169264;-55
2024/04/21 02:27:20;;;;;;;;;4.50;3.50;;;;;2.77;82.28;100568.77;112617;232;40597;-55
2024/04/21 02:30:00;;;;;;;;;6.50;4.00;;;;;2.75;82.20;100561.65;112447;232;169541;-55
2024/04/21 02:32:44;;;;;;;;;7.00;5.00;;;;;2.71;82.21;100562.59;112702;232;40647;-55
2024/04/21 02:35:28;;;;;;;;;5.67;4.33;;;;;2.72;82.15;100562.49;112976;231;40061;-58
2024/04/21 02:38:03;;;;;;;;;4.00;4.00;;;;;2.71;81.91;100573.19;112361;234;169887;-58
2024/04/21 02:40:40;;;;;;;;;8.00;6.00;;;;;2.70;82.00;100574.88;112636;232;40594;-55
2024/04/21 02:43:23;;;;;;;;;6.00;5.00;;;;;2.68;81.83;100576.34;112459;236;169714;-58
2024/04/21 02:46:01;;;;;;;;;8.00;6.00;;;;;2.68;81.82;100581.14;112617;232;41641;-59
2024/04/21 02:48:37;;;;;;;;;4.67;3.00;;;;;2.68;81.88;100589.67;112416;232;169318;-54
2024/04/21 02:51:14;;;;;;;;;6.00;5.00;;;;;2.67;81.88;100586.39;112513;235;40279;-56
2024/04/21 02:53:55;;;;;;;;;4.00;4.00;;;;;2.68;81.94;100586.48;112409;236;170833;-56
2024/04/21 02:56:33;;;;;;;;;7.00;5.00;;;;;2.69;82.00;100587.06;112477;232;40071;-55
2024/04/21 02:59:11;;;;;;;;;3.00;3.00;;;;;2.69;81.96;100587.28;112584;232;39798;-55
2024/04/21 03:01:54;;;;;;;;;6.00;4.00;;;;;2.70;82.08;100591.94;112317;233;169414;-55
2024/04/21 03:04:37;;;;;;;;;5.50;4.00;;;;;2.72;82.08;100592.92;112594;232;40254;-55
2024/04/21 03:07:18;;;;;;;;;5.00;4.00;;;;;2.71;81.96;100590.27;112357;236;169063;-55
2024/04/21 03:10:02;;;;;;;;;8.00;7.00;;;;;2.73;81.94;100588.52;112645;232;40753;-58
2024/04/21 03:12:42;;;;;;;;;6.00;5.00;;;;;2.70;81.82;100587.38;112391;233;169277;-59
2024/04/21 03:15:16;;;;;;;;;5.50;5.00;;;;;2.70;81.68;100585.79;112591;232;40125;-58
2024/04/21 03:17:51;;;;;;;;;5.00;4.00;;;;;2.70;81.72;100578.79;112475;232;169449;-58
2024/04/21 03:20:29;;;;;;;;;4.50;3.25;;;;;2.71;81.68;100577.34;112548;236;41905;-56
2024/04/21 03:23:17;;;;;;;;;4.67;4.00;;;;;2.67;81.87;100577.35;112595;236;41693;-56
2024/04/21 03:26:00;;;;;;;;;2.33;2.00;;;;;2.64;81.77;100577.23;112309;236;171038;-54
2024/04/21 03:28:36;;;;;;;;;6.00;5.00;;;;;2.64;81.65;100578.51;112604;232;40299;-58
2024/04/21 03:31:09;;;;;;;;;4.00;4.00;;;;;2.63;81.60;100579.13;112373;232;169236;-58
2024/04/21 03:33:44;;;;;;;;;8.00;6.00;;;;;2.61;81.73;100575.33;112563;232;40506;-59
2024/04/21 03:36:23;;;;;;;;;6.00;5.00;;;;;2.61;81.59;100570.87;112337;232;169389;-59
2024/04/21 03:39:05;;;;;;;;;4.00;3.00;;;;;2.55;81.65;100574.13;112449;236;40250;-59
2024/04/21 03:41:45;;;;;;;;;6.00;5.00;;;;;2.54;81.58;100575.27;112528;236;41930;-58
2024/04/21 03:44:22;;;;;;;;;6.00;4.00;;;;;2.57;81.43;100580.55;112755;236;41616;-57
2024/04/21 03:46:56;;;;;;;;;7.00;5.00;;;;;2.57;81.55;100582.67;112479;236;40933;-57
2024/04/21 03:49:34;;;;;;;;;4.00;3.00;;;;;2.61;81.49;100578.21;112318;232;169981;-57
2024/04/21 03:52:08;;;;;;;;;3.00;3.00;;;;;2.62;81.62;100580.11;112512;232;40029;-56
2024/04/21 03:54:43;;;;;;;;;4.00;3.00;;;;;2.60;81.57;100581.36;112367;236;169529;-58
2024/04/21 03:57:20;;;;;;;;;7.00;5.00;;;;;2.51;81.53;100581.91;112535;236;40455;-58
2024/04/21 03:59:57;;;;;;;;;5.00;4.00;;;;;2.51;81.62;100584.45;112359;232;169578;-59
2024/04/21 04:02:37;;;;;;;;;6.00;5.00;;;;;2.48;81.56;100588.75;112548;236;41055;-58
2024/04/21 04:05:21;;;;;;;;;5.00;4.00;;;;;2.49;81.61;100593.27;112683;232;40063;-55
2024/04/21 04:08:05;;;;;;;;;5.00;4.00;;;;;2.51;81.59;100592.24;112347;233;169840;-55
2024/04/21 04:10:43;;;;;;;;;5.00;4.00;;;;;2.53;81.73;100591.33;112689;232;40090;-57
2024/04/21 04:13:23;;;;;;;;;7.00;5.00;;;;;2.55;81.70;100590.66;112416;236;169012;-60
2024/04/21 04:16:02;;;;;;;;;8.00;6.33;;;;;2.55;81.74;100593.28;112632;235;42029;-60
2024/04/21 04:18:38;;;;;;;;;6.00;5.00;;;;;2.56;81.74;100596.62;112462;234;169433;-59
2024/04/21 04:21:16;;;;;;;;;5.00;4.00;;;;;2.53;81.75;100594.16;112631;234;40453;-59
2024/04/21 04:23:59;;;;;;;;;7.00;5.00;;;;;2.54;81.66;100595.88;112433;236;169714;-60
2024/04/21 04:26:35;;;;;;;;;8.00;5.00;;;;;2.55;81.70;100599.39;112491;234;40602;-58
2024/04/21 04:29:10;;;;;;;;;7.00;4.50;;;;;2.54;81.81;100599.05;112558;232;41630;-57
2024/04/21 04:31:51;;;;;;;;;7.00;6.00;;;;;2.56;81.85;100593.89;112310;233;169484;-52
2024/04/21 04:34:28;;;;;;;;;6.00;5.00;;;;;2.59;81.77;100588.17;112570;232;40356;-59
2024/04/21 04:37:05;;;;;;;;;7.00;5.00;;;;;2.62;81.86;100590.22;112399;232;169354;-60
2024/04/21 04:39:46;;;;;;;;;3.33;3.00;;;;;2.63;81.67;100590.83;112635;232;39614;-59
2024/04/21 04:42:20;;;;;;;;;8.00;5.00;;;;;2.66;81.81;100593.19;112453;233;169575;-59
2024/04/21 04:44:58;;;;;;;;;5.50;4.00;;;;;2.72;81.64;100596.23;112556;236;40481;-58
2024/04/21 04:47:37;;;;;;;;;5.00;4.00;;;;;2.73;81.57;100596.35;112601;236;41728;-57
2024/04/21 04:50:16;;;;;;;;;5.00;4.00;;;;;2.77;81.64;100597.74;112522;233;40467;-55
2024/04/21 04:52:56;;;;;;;;;7.00;5.00;;;;;2.81;81.55;100600.94;112682;232;41870;-57
2024/04/21 04:55:39;;;;;;;;;7.25;6.00;;;;;2.77;81.67;100602.89;112393;233;169485;-57
2024/04/21 04:58:21;;;;;;;;;7.00;5.00;;;;;2.81;81.68;100601.63;112651;232;40730;-57
2024/04/21 05:01:01;;;;;;;;;6.50;5.50;;;;;2.85;81.82;100606.98;112397;232;169369;-57
2024/04/21 05:03:37;;;;;;;;;6.00;5.50;;;;;2.87;81.71;100605.23;112645;236;40441;-54
2024/04/21 05:06:19;;;;;;;;;6.00;5.00;;;;;2.92;81.71;100606.52;112417;236;169687;-56
2024/04/21 05:09:05;;;;;;;;;3.67;3.33;;;;;2.94;81.64;100607.05;112521;233;40470;-55
2024/04/21 05:11:45;;;;;;;;;9.33;5.33;;;;;3.01;81.58;100606.79;112610;232;40233;-55
2024/04/21 05:14:19;;;;;;;;;5.00;5.00;;;;;3.05;81.66;100606.67;112492;234;41354;-55
2024/04/21 05:16:56;;;;;;;;;7.00;5.00;;;;;3.05;81.77;100609.38;112624;232;40430;-56
2024/04/21 05:19:34;;;;;;;;;4.00;3.00;;;;;3.07;81.66;100612.48;112387;232;169964;-58
2024/04/21 05:22:12;;;;;;;;;7.00;5.00;;;;;3.09;81.70;100607.34;112607;232;40605;-58
2024/04/21 05:24:50;;;;;;;;;6.75;4.75;;;;;3.16;81.72;100609.80;112418;236;169548;-58
2024/04/21 05:27:27;;;;;;;;;5.00;4.00;;;;;3.20;81.61;100604.27;112611;232;40138;-57
2024/04/21 05:30:01;;;;;;;;;6.00;4.00;;;;;3.23;81.58;100608.21;112517;232;170135;-59
2024/04/21 05:32:40;;;;;;;;;6.67;5.00;;;;;3.29;81.47;100606.73;112628;232;40872;-58
2024/04/21 05:35:21;;;;;;;;;5.00;4.00;;;;;3.32;81.36;100611.98;112643;235;41398;-56
2024/04/21 05:38:06;;;;;;;;;6.00;4.00;;;;;3.34;81.35;100613.23;112369;236;169871;-55
2024/04/21 05:40:43;;;;;;;;;6.00;5.00;;;;;3.34;81.49;100614.70;112628;236;41273;-58
2024/04/21 05:43:19;;;;;;;;;4.00;4.00;;;;;3.37;81.44;100616.02;112387;232;169646;-59
2024/04/21 05:46:03;;;;;;;;;7.00;5.25;;;;;3.38;81.46;100615.72;112568;232;41527;-59
2024/04/21 05:48:37;;;;;;;;;6.00;5.00;;;;;3.32;81.51;100618.06;112386;232;170185;-55
2024/04/21 05:51:15;;;;;;;;;8.00;6.00;;;;;3.33;81.61;100619.89;112581;232;40671;-55
2024/04/21 05:53:52;;;;;;;;;6.50;5.00;;;;;3.40;81.50;100620.21;112589;232;40842;-58
2024/04/21 05:56:30;;;;;;;;;4.00;3.00;;;;;3.44;81.43;100623.52;112555;233;41786;-59
2024/04/21 05:59:09;;;;;;;;;10.00;7.00;;;;;3.46;81.47;100623.73;112907;232;41728;-56
2024/04/21 06:01:44;;;;;;;;;5.00;5.00;;;;;3.47;81.44;100624.36;112285;233;169927;-56
2024/04/21 06:04:23;;;;;;;;;6.00;4.00;;;;;3.53;81.33;100618.66;112572;232;40754;-56
2024/04/21 06:07:01;;;;;;;;;8.00;6.00;;;;;3.57;81.52;100621.63;112405;236;169559;-56
2024/04/21 06:09:36;;;;;;;;;4.50;4.00;;;;;3.62;81.43;100618.20;112551;233;41295;-54
2024/04/21 06:12:12;;;;;;;;;4.00;3.00;;;;;3.68;81.46;100619.37;112441;232;169522;-54
2024/04/21 06:14:45;;;;;;;;;9.00;6.00;;;;;3.73;81.55;100617.35;112571;233;41718;-56
2024/04/21 06:17:24;;;;;;;;;7.50;6.00;;;;;3.72;81.54;100615.52;112654;236;40050;-56
2024/04/21 06:20:05;;;;;;;;;7.00;7.00;;;;;3.81;81.48;100616.09;112423;233;169588;-60
2024/04/21 06:22:41;;;;;;;;;7.00;5.00;;;;;3.89;81.51;100618.38;112690;232;40727;-60
2024/04/21 06:25:16;;;;;;;;;10.00;7.00;;;;;3.95;81.46;100616.88;112433;236;169639;-58
2024/04/21 06:27:50;;;;;;;;;9.00;7.00;;;;;3.97;81.51;100616.64;112549;232;40003;-57
2024/04/21 06:30:29;;;;;;;;;8.00;7.00;;;;;3.98;81.26;100611.80;112452;233;169875;-59
2024/04/21 06:33:07;;;;;;;;;3.50;3.00;;;;;4.02;81.25;100611.20;112535;232;40441;-55
2024/04/21 06:35:47;;;;;;;;;7.00;6.00;;;;;4.04;81.19;100610.84;112570;236;41559;-56
2024/04/21 06:38:20;;;;;;;;;7.00;5.00;;;;;4.05;81.36;100610.77;112476;235;169179;-54
2024/04/21 06:40:55;;;;;;;;;6.00;5.00;;;;;4.07;81.15;100612.33;112938;235;40268;-54
2024/04/21 06:43:38;;;;;;;;;10.50;8.00;;;;;4.11;81.26;100612.92;112518;232;169788;-55
2024/04/21 06:46:19;;;;;;;;;9.33;7.00;;;;;4.20;81.09;100610.48;112584;232;41289;-54
2024/04/21 06:49:00;;;;;;;;;8.00;6.00;;;;;4.29;81.07;100617.84;111864;232;669929;-59
2024/04/21 06:51:41;;;;;;;;;8.00;6.00;;;;;4.34;80.98;100615.73;112584;232;41744;-61
2024/04/21 06:54:21;;;;;;;;;5.00;4.00;;;;;4.37;80.80;100612.24;112413;232;169670;-57
2024/04/21 06:56:59;;;;;;;;;7.00;6.00;;;;;4.40;80.67;100609.09;112609;234;39865;-56
2024/04/21 06:59:34;;;;;;;;;8.50;6.00;;;;;4.42;80.62;100606.17;112584;232;40519;-59
2024/04/21 07:02:14;;;;;;;;;6.00;5.00;;;;;4.50;80.73;100611.32;112443;236;169385;-60
2024/04/21 07:04:48;;;;;;;;;5.00;4.00;;;;;4.50;80.48;100609.73;112629;232;40825;-60
2024/04/21 07:07:29;;;;;;;;;7.00;6.00;;;;;4.52;80.52;100608.46;112516;232;169902;-61
2024/04/21 07:10:06;;;;;;;;;11.00;7.00;;;;;4.60;80.48;100604.61;112917;235;43256;-56
2024/04/21 07:12:42;;;;;;;;;6.00;5.67;;;;;4.66;80.25;100605.65;112649;232;170142;-52
2024/04/21 07:15:21;;;;;;;;;6.67;5.00;;;;;4.71;80.46;100603.89;112515;234;40912;-61
2024/04/21 07:17:58;;;;;;;;;5.00;5.00;;;;;4.79;80.41;100601.91;112611;232;42030;-56
2024/04/21 07:20:40;;;;;;;;;10.00;7.00;;;;;4.87;80.14;100598.81;112492;234;40405;-58
2024/04/21 07:23:18;;;;;;;;;5.75;4.50;;;;;4.96;80.18;100597.80;112517;236;40703;-57
2024/04/21 07:25:52;;;;;;;;;10.00;7.00;;;;;5.05;80.11;100599.16;112336;233;170191;-58
2024/04/21 07:28:30;;;;;;;;;8.33;6.33;;;;;5.12;80.01;100598.11;112578;232;40773;-56
2024/04/21 07:31:12;;;;;;;;;12.00;8.00;;;;;5.15;79.95;100602.10;112374;232;171014;-58
2024/04/21 07:33:53;;;;;;;;;7.50;6.00;;;;;5.23;79.90;100602.89;112534;236;40831;-58
2024/04/21 07:36:40;;;;;;;;;7.00;6.00;;;;;5.26;79.34;100602.63;112374;232;170062;-57
2024/04/21 07:39:17;;;;;;;;;10.00;7.00;;;;;5.32;79.55;100602.16;112619;236;39776;-59
2024/04/21 07:41:53;;;;;;;;;7.67;6.00;;;;;5.41;79.30;100598.80;112624;236;39707;-59
2024/04/21 07:44:30;;;;;;;;;7.00;6.00;;;;;5.49;79.49;100598.73;112422;236;169133;-58
2024/04/21 07:47:08;;;;;;;;;6.00;5.00;;;;;5.64;79.30;100596.38;112579;232;39683;-63
2024/04/21 07:49:46;;;;;;;;;6.00;5.00;;;;;5.81;79.26;100593.88;112414;234;170548;-58
2024/04/21 07:52:20;;;;;;;;;6.00;5.00;;;;;5.92;78.82;100594.77;112597;232;41468;-59
2024/04/21 07:54:58;;;;;;;;;11.00;8.33;;;;;5.99;78.52;100595.50;112413;236;169635;-54
2024/04/21 07:57:34;;;;;;;;;7.00;6.00;;;;;6.01;78.26;100593.13;112512;236;40543;-55
2024/04/21 08:00:11;;;;;;;;;5.00;5.00;;;;;6.09;78.27;100591.39;112341;236;169290;-57
2024/04/21 08:02:47;;;;;;;;;8.67;6.00;;;;;6.19;78.00;100590.63;112508;234;40260;-57
2024/04/21 08:05:21;;;;;;;;;8.00;6.00;;;;;6.27;78.23;100592.62;112569;232;41085;-55
2024/04/21 08:07:55;;;;;;;;;8.00;5.67;;;;;6.31;77.83;100593.20;112338;232;169601;-55
2024/04/21 08:10:30;;;;;;;;;7.00;6.00;;;;;6.26;77.58;100593.92;112545;236;41457;-68
2024/04/21 08:13:10;;;;;;;;;9.00;6.00;;;;;6.32;77.42;100596.05;112315;236;169020;-57
2024/04/21 08:15:45;;;;;;;;;9.00;7.00;;;;;6.31;76.60;100599.84;112563;234;40506;-55
2024/04/21 08:18:27;;;;;;;;;6.00;5.00;;;;;6.25;76.55;100606.54;112400;232;169024;-61
2024/04/21 08:21:04;;;;;;;;;5.00;4.00;;;;;6.26;76.34;100606.45;112529;234;40931;-57
2024/04/21 08:23:42;;;;;;;;;6.00;5.00;;;;;6.31;76.41;100606.48;112560;236;40078;-56
2024/04/21 08:26:24;;;;;;;;;7.00;6.00;;;;;6.42;76.15;100605.88;112372;234;168963;-57
2024/04/21 08:28:58;;;;;;;;;6.00;5.25;;;;;6.42;75.47;100611.02;112566;236;40881;-57
2024/04/21 08:31:40;;;;;;;;;9.00;6.00;;;;;6.38;75.34;100610.79;112400;234;169206;-56
2024/04/21 08:34:20;;;;;;;;;7.00;6.00;;;;;6.41;75.30;100613.99;112556;232;40473;-56
2024/04/21 08:37:02;;;;;;;;;8.00;7.00;;;;;6.46;75.36;100610.41;112377;236;168980;-59
2024/04/21 08:39:38;;;;;;;;;10.00;8.00;;;;;6.45;75.27;100611.78;112539;232;41418;-57
2024/04/21 08:42:22;;;;;;;;;9.00;7.00;;;;;6.62;75.53;100611.91;112404;232;169311;-56
2024/04/21 08:45:02;;;;;;;;;7.00;5.00;;;;;6.69;75.42;100609.00;112532;234;41247;-60
2024/04/21 08:47:37;;;;;;;;;7.00;6.00;;;;;6.76;75.34;100613.60;112575;236;42338;-60
2024/04/21 08:50:13;;;;;;;;;7.33;6.00;;;;;6.85;75.47;100613.35;112446;232;170582;-60
2024/04/21 08:52:54;;;;;;;;;9.00;7.00;;;;;6.85;75.00;100607.78;112575;232;40558;-59
2024/04/21 08:55:32;;;;;;;;;7.00;6.00;;;;;6.93;75.06;100610.40;112595;234;169029;-57
2024/04/21 08:58:13;;;;;;;;;9.50;8.00;;;;;6.98;74.47;100608.95;112603;232;41317;-59
2024/04/21 09:00:50;;;;;;;;;10.00;8.00;;;;;7.13;74.77;100601.23;112444;236;169495;-57
2024/04/21 09:03:27;;;;;;;;;10.00;8.00;;;;;7.30;74.61;100602.68;112570;233;41486;-57
2024/04/21 09:06:05;;;;;;;;;7.00;6.00;;;;;7.44;74.54;100604.71;112595;232;40256;-58
2024/04/21 09:08:40;;;;;;;;;8.00;6.00;;;;;7.50;74.07;100604.19;112556;236;41587;-61
2024/04/21 09:11:22;;;;;;;;;8.00;7.00;;;;;7.45;73.60;100606.02;112667;232;40131;-60
2024/04/21 09:14:06;;;;;;;;;7.00;6.00;;;;;7.48;73.76;100603.34;112444;232;169230;-59
2024/04/21 09:16:46;;;;;;;;;8.00;6.00;;;;;7.47;73.22;100601.86;112612;236;41128;-59
2024/04/21 09:19:24;;;;;;;;;6.00;6.00;;;;;7.45;72.43;100604.95;112377;232;169012;-59
2024/04/21 09:22:03;;;;;;;;;5.00;4.33;;;;;7.45;71.92;100598.48;112496;234;41045;-58
2024/04/21 09:24:39;;;;;;;;;5.00;5.00;;;;;7.51;71.54;100601.73;112480;232;169212;-61
2024/04/21 09:27:17;;;;;;;;;8.00;7.00;;;;;7.56;71.10;100594.33;112537;233;40390;-61
2024/04/21 09:29:57;;;;;;;;;10.00;6.00;;;;;7.65;71.02;100589.13;112591;232;40217;-59
2024/04/21 09:32:47;;;;;;;;;8.00;6.00;;;;;7.75;71.12;100599.02;112413;236;169535;-59
2024/04/21 09:35:27;;;;;;;;;7.00;6.00;;;;;7.83;70.76;100599.08;112728;232;40458;-60
2024/04/21 09:38:09;;;;;;;;;7.00;5.00;;;;;7.91;70.12;100592.71;112368;234;168989;-59
2024/04/21 09:40:51;;;;;;;;;9.00;7.00;;;;;7.77;68.90;100596.43;112619;232;41025;-54
2024/04/21 09:43:30;;;;;;;;;5.67;4.67;;;;;7.67;69.45;100592.61;112404;233;168941;-56
2024/04/21 09:46:11;;;;;;;;;7.00;5.00;;;;;7.64;69.87;100592.16;112603;232;39687;-57
2024/04/21 09:48:50;;;;;;;;;8.00;6.00;;;;;7.66;69.78;100595.65;112461;236;169319;-58
2024/04/21 09:51:37;;;;;;;;;5.00;4.00;;;;;7.75;69.71;100595.46;112576;236;40924;-59
2024/04/21 09:54:19;;;;;;;;;6.00;5.00;;;;;7.76;69.62;100597.27;112445;236;169376;-60
2024/04/21 09:56:59;;;;;;;;;6.00;5.00;;;;;7.70;69.34;100596.42;112519;234;40730;-61
2024/04/21 09:59:42;;;;;;;;;6.00;5.00;;;;;7.68;69.16;100597.94;112622;232;40215;-60
2024/04/21 10:02:25;;;;;;;;;8.00;6.50;;;;;7.64;69.62;100596.60;112331;232;169002;-59
2024/04/21 10:05:05;;;;;;;;;8.67;6.67;;;;;7.64;69.87;100597.54;112687;232;40744;-60
2024/04/21 10:07:44;;;;;;;;;6.00;4.00;;;;;7.59;69.91;100595.51;112416;232;168990;-60
2024/04/21 10:10:24;;;;;;;;;9.00;7.00;;;;;7.57;69.81;100594.45;112626;232;41604;-59
2024/04/21 10:13:01;;;;;;;;;12.00;9.00;;;;;7.64;69.53;100595.38;112384;232;169078;-58
2024/04/21 10:15:39;;;;;;;;;5.50;5.00;;;;;7.61;69.11;100594.77;112562;232;40332;-55
2024/04/21 10:18:23;;;;;;;;;8.00;7.00;;;;;7.59;69.32;100596.95;112470;232;172026;-56
2024/04/21 10:21:04;;;;;;;;;7.00;6.00;;;;;7.60;69.06;100598.87;112542;232;39667;-57
2024/04/21 10:23:40;;;;;;;;;8.00;5.00;;;;;7.54;68.93;100596.14;112653;232;40522;-55
2024/04/21 10:26:18;;;;;;;;;10.33;6.00;;;;;7.52;68.92;100601.66;112450;233;170237;-53
2024/04/21 10:28:54;;;;;;;;;8.00;6.00;;;;;7.44;68.70;100600.77;112666;232;41055;-55
2024/04/21 10:31:31;;;;;;;;;7.00;6.00;;;;;7.42;68.86;100602.78;112392;233;169585;-55
2024/04/21 10:34:11;;;;;;;;;5.50;5.00;;;;;7.39;68.92;100596.86;112636;233;40411;-61
2024/04/21 10:36:52;;;;;;;;;7.00;6.00;;;;;7.43;68.95;100598.36;112522;232;169412;-60
2024/04/21 10:39:28;;;;;;;;;8.00;6.00;;;;;7.40;69.08;100596.52;112571;232;41586;-57
2024/04/21 10:42:08;;;;;;;;;6.00;5.00;;;;;7.38;68.79;100597.72;112617;235;40508;-57
2024/04/21 10:44:45;;;;;;;;;8.00;7.00;;;;;7.34;68.98;100594.14;112544;236;40694;-61
2024/04/21 10:47:20;;;;;;;;;8.00;5.33;;;;;7.35;69.14;100594.61;112627;232;40506;-61
2024/04/21 10:49:56;;;;;;;;;6.00;5.00;;;;;7.38;69.32;100599.24;112364;236;169070;-58
2024/04/21 10:52:35;;;;;;;;;6.50;4.50;;;;;7.46;69.53;100600.75;112567;232;40057;-57
2024/04/21 10:55:10;;;;;;;;;9.00;7.00;;;;;7.50;69.46;100607.85;112402;232;169285;-56
2024/04/21 10:57:47;;;;;;;;;8.00;6.00;;;;;7.43;69.50;100606.39;112550;236;40073;-56
2024/04/21 11:00:25;;;;;;;;;5.00;5.00;;;;;7.49;69.73;100607.07;112399;236;169467;-60
2024/04/21 11:03:04;;;;;;;;;7.00;6.00;;;;;7.59;70.11;100616.84;112492;234;40504;-57
2024/04/21 11:05:57;;;;;;;;;11.50;8.00;;;;;7.55;69.87;100618.40;112558;232;40355;-57
2024/04/21 11:08:41;;;;;;;;;6.25;5.00;;;;;7.47;69.91;100620.64;112343;236;169032;-56
2024/04/21 11:11:21;;;;;;;;;9.00;7.00;;;;;7.44;70.20;100621.17;112576;232;40859;-57
2024/04/21 11:13:56;;;;;;;;;7.33;6.00;;;;;7.46;70.28;100622.05;112363;233;169694;-55
2024/04/21 11:16:38;;;;;;;;;5.67;5.00;;;;;7.53;70.48;100621.48;112633;232;40654;-54
2024/04/21 11:19:16;;;;;;;;;7.00;6.00;;;;;7.62;70.78;100625.52;112463;232;169007;-56
2024/04/21 11:21:51;;;;;;;;;7.00;5.00;;;;;7.61;70.82;100625.91;112579;232;40626;-56
2024/04/21 11:24:33;;;;;;;;;8.00;6.00;;;;;7.71;71.17;100631.82;112414;232;169189;-55
2024/04/21 11:27:11;;;;;;;;;7.00;5.00;;;;;7.70;71.11;100635.05;112501;236;40744;-56
2024/04/21 11:29:49;;;;;;;;;9.00;7.00;;;;;7.68;71.27;100636.09;112506;232;40420;-59
2024/04/21 11:32:31;;;;;;;;;9.00;7.00;;;;;7.67;71.33;100635.17;112346;233;168847;-58
2024/04/21 11:35:09;;;;;;;;;10.00;7.00;;;;;7.72;71.47;100639.29;112560;232;41736;-59
2024/04/21 11:37:50;;;;;;;;;5.00;4.00;;;;;7.64;71.59;100640.17;112396;232;171694;-59
2024/04/21 11:40:29;;;;;;;;;9.00;7.00;;;;;7.51;71.70;100641.02;112541;232;40535;-55
2024/04/21 11:43:09;;;;;;;;;8.00;6.00;;;;;7.46;71.88;100648.42;112363;232;169131;-55
2024/04/21 11:45:50;;;;;;;;;7.00;5.00;;;;;7.54;72.01;100650.73;112530;232;40286;-59
2024/04/21 11:48:29;;;;;;;;;7.67;5.67;;;;;7.48;71.55;100647.11;112392;232;169185;-50
2024/04/21 11:51:09;;;;;;;;;6.67;6.00;;;;;7.49;71.91;100644.88;112546;232;40269;-57
2024/04/21 11:53:47;;;;;;;;;6.00;5.25;;;;;7.47;71.87;100645.58;112630;232;41243;-58
2024/04/21 11:56:26;;;;;;;;;7.00;5.75;;;;;7.51;72.05;100640.34;112405;234;169065;-58
2024/04/21 11:59:02;;;;;;;;;6.25;4.25;;;;;7.55;72.26;100640.96;112572;232;40297;-58
2024/04/21 12:01:39;;;;;;;;;7.00;6.00;;;;;7.56;72.09;100640.69;112417;236;168994;-58
2024/04/21 12:04:15;;;;;;;;;9.00;8.00;;;;;7.59;72.12;100639.65;112561;232;40295;-54
2024/04/21 12:06:58;;;;;;;;;6.00;6.00;;;;;7.57;72.38;100633.96;112378;232;169658;-56
2024/04/21 12:09:36;;;;;;;;;8.00;7.00;;;;;7.65;72.07;100640.92;112493;232;40582;-56
2024/04/21 12:12:21;;;;;;;;;7.00;6.00;;;;;7.71;72.07;100642.65;112478;236;40354;-55
2024/04/21 12:15:01;;;;;;;;;8.50;6.00;;;;;7.70;71.70;100642.95;112514;232;40559;-59
2024/04/21 12:17:36;;;;;;;;;9.67;8.00;;;;;7.64;71.62;100643.40;112571;232;40557;-58
2024/04/21 12:20:11;;;;;;;;;7.67;6.00;;;;;7.59;71.37;100641.11;112331;234;170147;-55
2024/04/21 12:22:49;;;;;;;;;5.00;4.00;;;;;7.60;71.58;100639.73;112553;236;39828;-56